createdAt,value
2023-02-17T00:00:14.433Z,46.49
2023-02-17T00:00:36.266Z,46.22
2023-02-17T00:00:57.987Z,46.44
2023-02-17T00:01:23.605Z,46.28
2023-02-17T00:01:45.263Z,46.14
2023-02-17T00:02:06.990Z,46.38
2023-02-17T00:02:28.626Z,46.41
2023-02-17T00:02:51.311Z,46.61
2023-02-17T00:03:13.063Z,46.69
2023-02-17T00:03:34.904Z,46.67
2023-02-17T00:03:57.536Z,46.69
2023-02-17T00:04:20.266Z,46.72
2023-02-17T00:04:41.973Z,46.60
2023-02-17T00:05:03.883Z,46.74
2023-02-17T00:05:27.300Z,46.97
2023-02-17T00:05:51.059Z,47.01
2023-02-17T00:06:12.909Z,47.09
2023-02-17T00:06:34.543Z,46.74
2023-02-17T00:06:57.545Z,46.87
2023-02-17T00:07:19.577Z,46.63
2023-02-17T00:07:41.281Z,46.67
2023-02-17T00:08:03.055Z,46.74
2023-02-17T00:08:25.645Z,46.56
2023-02-17T00:08:48.182Z,46.57
2023-02-17T00:09:09.938Z,46.40
2023-02-17T00:09:31.639Z,46.68
2023-02-17T00:09:54.287Z,46.66
2023-02-17T00:10:15.988Z,46.56
2023-02-17T00:10:37.745Z,46.38
2023-02-17T00:10:59.559Z,46.30
2023-02-17T00:11:22.202Z,46.42
2023-02-17T00:11:45.664Z,46.59
2023-02-17T00:12:07.785Z,46.51
2023-02-17T00:12:29.414Z,46.45
2023-02-17T00:12:53.486Z,46.94
2023-02-17T00:13:15.197Z,46.85
2023-02-17T00:13:38.430Z,47.26
2023-02-17T00:14:01.290Z,47.50
2023-02-17T00:14:23.265Z,47.43
2023-02-17T00:14:45.015Z,47.64
2023-02-17T00:15:07.507Z,47.64
2023-02-17T00:15:30.108Z,47.53
2023-02-17T00:15:52.014Z,47.35
2023-02-17T00:16:17.799Z,47.68
2023-02-17T00:16:41.072Z,48.06
2023-02-17T00:17:02.705Z,48.01
2023-02-17T00:17:24.543Z,47.58
2023-02-17T00:17:46.370Z,47.75
2023-02-17T00:18:09.079Z,47.65
2023-02-17T00:18:30.735Z,47.67
2023-02-17T00:18:54.282Z,47.51
2023-02-17T00:19:26.022Z,47.40
2023-02-17T00:19:47.894Z,47.74
2023-02-17T00:20:10.490Z,47.64
2023-02-17T00:20:32.199Z,47.71
2023-02-17T00:20:54.913Z,47.97
2023-02-17T00:21:18.559Z,47.76
2023-02-17T00:21:40.449Z,47.70
2023-02-17T00:22:03.455Z,47.72
2023-02-17T00:22:25.503Z,47.66
2023-02-17T00:22:47.237Z,47.90
2023-02-17T00:23:08.991Z,48.28
2023-02-17T00:23:30.671Z,48.68
2023-02-17T00:23:54.047Z,48.36
2023-02-17T00:24:15.708Z,48.53
2023-02-17T00:24:38.715Z,48.36
2023-02-17T00:25:00.436Z,48.03
2023-02-17T00:25:23.118Z,48.16
2023-02-17T00:25:44.813Z,48.05
2023-02-17T00:26:07.656Z,48.16
2023-02-17T00:26:29.506Z,47.89
2023-02-17T00:26:52.194Z,47.93
2023-02-17T00:27:14.380Z,48.16
2023-02-17T00:27:36.103Z,48.26
2023-02-17T00:27:57.818Z,48.24
2023-02-17T00:28:21.679Z,48.21
2023-02-17T00:28:46.633Z,48.36
2023-02-17T00:29:08.674Z,48.59
2023-02-17T00:29:30.466Z,48.46
2023-02-17T00:29:54.521Z,48.72
2023-02-17T00:30:17.892Z,48.75
2023-02-17T00:30:39.608Z,48.45
2023-02-17T00:31:06.414Z,48.64
2023-02-17T00:31:29.118Z,48.37
2023-02-17T00:31:54.212Z,48.35
2023-02-17T00:32:17.878Z,48.23
2023-02-17T00:32:40.899Z,48.14
2023-02-17T00:33:02.643Z,48.14
2023-02-17T00:33:24.251Z,47.98
2023-02-17T00:33:45.988Z,47.97
2023-02-17T00:34:08.608Z,47.74
2023-02-17T00:34:30.298Z,47.79
2023-02-17T00:34:52.140Z,47.69
2023-02-17T00:35:13.833Z,47.90
2023-02-17T00:35:40.858Z,47.74
2023-02-17T00:36:05.931Z,47.75
2023-02-17T00:36:28.393Z,47.70
2023-02-17T00:36:51.159Z,47.60
2023-02-17T00:37:12.927Z,47.93
2023-02-17T00:37:35.659Z,47.92
2023-02-17T00:37:57.565Z,47.92
2023-02-17T00:38:20.504Z,47.92
2023-02-17T00:38:42.476Z,47.87
2023-02-17T00:39:05.557Z,48.05
2023-02-17T00:39:28.534Z,47.97
2023-02-17T00:39:50.827Z,47.88
2023-02-17T00:40:14.910Z,48.02
2023-02-17T00:40:36.692Z,47.83
2023-02-17T00:40:59.529Z,47.85
2023-02-17T00:41:22.056Z,48.25
2023-02-17T00:41:44.847Z,48.45
2023-02-17T00:42:07.523Z,48.58
2023-02-17T00:42:29.553Z,48.82
2023-02-17T00:42:54.874Z,48.69
2023-02-17T00:43:16.516Z,48.72
2023-02-17T00:43:39.223Z,48.41
2023-02-17T00:44:02.639Z,48.20
2023-02-17T00:44:25.284Z,48.16
2023-02-17T00:44:48.016Z,48.19
2023-02-17T00:45:10.086Z,47.78
2023-02-17T00:45:32.127Z,47.87
2023-02-17T00:45:53.999Z,47.85
2023-02-17T00:46:18.078Z,47.54
2023-02-17T00:46:40.210Z,47.59
2023-02-17T00:47:02.034Z,47.81
2023-02-17T00:47:24.668Z,47.71
2023-02-17T00:47:46.295Z,48.25
2023-02-17T00:48:11.899Z,48.92
2023-02-17T00:48:34.864Z,48.55
2023-02-17T00:48:56.866Z,48.59
2023-02-17T00:49:20.572Z,48.57
2023-02-17T00:49:42.332Z,48.79
2023-02-17T00:50:06.184Z,48.82
2023-02-17T00:50:27.907Z,48.87
2023-02-17T00:50:50.758Z,48.97
2023-02-17T00:51:12.549Z,48.97
2023-02-17T00:51:34.321Z,48.80
2023-02-17T00:52:00.754Z,48.75
2023-02-17T00:52:22.684Z,48.72
2023-02-17T00:52:44.480Z,48.57
2023-02-17T00:53:06.201Z,48.75
2023-02-17T00:53:29.244Z,48.51
2023-02-17T00:53:51.797Z,48.55
2023-02-17T00:54:13.998Z,48.26
2023-02-17T00:54:35.802Z,48.33
2023-02-17T00:54:58.513Z,48.49
2023-02-17T00:55:20.258Z,48.32
2023-02-17T00:55:43.257Z,48.48
2023-02-17T00:56:05.992Z,48.33
2023-02-17T00:56:28.824Z,48.33
2023-02-17T00:56:50.550Z,48.21
2023-02-17T00:57:12.353Z,48.24
2023-02-17T00:57:34.046Z,47.98
2023-02-17T00:57:57.114Z,48.36
2023-02-17T00:58:18.832Z,48.12
2023-02-17T00:58:41.674Z,48.13
2023-02-17T00:59:05.412Z,48.04
2023-02-17T00:59:29.712Z,47.87
2023-02-17T00:59:51.539Z,47.90
2023-02-17T01:00:14.512Z,47.89
2023-02-17T01:00:36.227Z,47.71
2023-02-17T01:00:59.689Z,47.89
2023-02-17T01:01:21.495Z,47.93
2023-02-17T01:01:43.398Z,48.11
2023-02-17T01:02:05.329Z,48.09
2023-02-17T01:02:29.240Z,48.34
2023-02-17T01:02:50.949Z,48.29
2023-02-17T01:03:12.690Z,48.19
2023-02-17T01:03:34.685Z,48.02
2023-02-17T01:03:57.366Z,48.08
2023-02-17T01:04:21.471Z,48.10
2023-02-17T01:04:43.362Z,47.79
2023-02-17T01:05:07.038Z,47.77
2023-02-17T01:05:29.735Z,47.79
2023-02-17T01:05:52.450Z,47.62
2023-02-17T01:06:21.219Z,47.47
2023-02-17T01:06:43.033Z,47.69
2023-02-17T01:07:05.895Z,47.64
2023-02-17T01:07:27.786Z,47.96
2023-02-17T01:07:49.494Z,47.90
2023-02-17T01:08:13.022Z,48.14
2023-02-17T01:08:34.854Z,48.13
2023-02-17T01:08:56.770Z,48.01
2023-02-17T01:09:18.638Z,48.07
2023-02-17T01:09:40.286Z,48.29
2023-02-17T01:10:04.668Z,48.57
2023-02-17T01:10:26.802Z,48.68
2023-02-17T01:10:51.121Z,48.61
2023-02-17T01:11:17.593Z,48.52
2023-02-17T01:11:41.390Z,48.31
2023-02-17T01:12:03.453Z,48.42
2023-02-17T01:12:28.750Z,48.88
2023-02-17T01:12:51.229Z,48.89
2023-02-17T01:13:17.068Z,49.36
2023-02-17T01:13:40.029Z,49.36
2023-02-17T01:14:06.118Z,49.20
2023-02-17T01:14:29.410Z,49.26
2023-02-17T01:14:52.118Z,49.06
2023-02-17T01:15:14.140Z,49.03
2023-02-17T01:15:38.569Z,48.70
2023-02-17T01:16:00.250Z,48.52
2023-02-17T01:16:25.857Z,48.60
2023-02-17T01:16:49.241Z,48.59
2023-02-17T01:17:10.951Z,48.54
2023-02-17T01:17:32.987Z,48.19
2023-02-17T01:17:55.614Z,48.02
2023-02-17T01:18:18.809Z,47.93
2023-02-17T01:18:40.393Z,47.81
2023-02-17T01:19:03.497Z,47.94
2023-02-17T01:19:26.356Z,47.71
2023-02-17T01:19:48.450Z,47.65
2023-02-17T01:20:11.788Z,47.61
2023-02-17T01:20:35.213Z,48.00
2023-02-17T01:21:17.856Z,47.71
2023-02-17T01:21:40.761Z,47.52
2023-02-17T01:22:05.713Z,47.60
2023-02-17T01:22:27.502Z,47.46
2023-02-17T01:22:51.059Z,47.56
2023-02-17T01:23:14.015Z,47.33
2023-02-17T01:23:35.702Z,47.40
2023-02-17T01:23:59.863Z,47.17
2023-02-17T01:24:24.245Z,47.00
2023-02-17T01:24:45.912Z,47.27
2023-02-17T01:25:07.885Z,47.47
2023-02-17T01:25:30.120Z,47.17
2023-02-17T01:25:52.946Z,47.42
2023-02-17T01:26:15.459Z,47.63
2023-02-17T01:26:40.629Z,47.74
2023-02-17T01:27:02.278Z,47.44
2023-02-17T01:27:24.063Z,47.82
2023-02-17T01:27:47.027Z,47.99
2023-02-17T01:28:11.824Z,47.87
2023-02-17T01:28:35.993Z,47.81
2023-02-17T01:29:00.857Z,47.77
2023-02-17T01:29:24.912Z,47.78
2023-02-17T01:29:46.670Z,47.64
2023-02-17T01:30:09.014Z,47.52
2023-02-17T01:30:30.724Z,47.35
2023-02-17T01:30:53.451Z,47.49
2023-02-17T01:31:16.682Z,47.23
2023-02-17T01:31:40.381Z,47.18
2023-02-17T01:32:04.567Z,47.31
2023-02-17T01:32:27.167Z,47.56
2023-02-17T01:32:49.843Z,47.45
2023-02-17T01:33:11.515Z,47.81
2023-02-17T01:33:33.857Z,47.46
2023-02-17T01:33:58.300Z,47.26
2023-02-17T01:34:20.016Z,47.43
2023-02-17T01:34:41.654Z,47.09
2023-02-17T01:35:03.369Z,47.12
2023-02-17T01:35:25.031Z,46.85
2023-02-17T01:35:47.653Z,46.87
2023-02-17T01:36:12.830Z,47.01
2023-02-17T01:36:35.126Z,47.20
2023-02-17T01:36:56.804Z,47.34
2023-02-17T01:37:19.343Z,47.52
2023-02-17T01:37:40.944Z,47.55
2023-02-17T01:38:02.616Z,47.35
2023-02-17T01:38:24.295Z,47.29
2023-02-17T01:38:46.502Z,47.38
2023-02-17T01:39:09.094Z,47.00
2023-02-17T01:39:30.970Z,47.01
2023-02-17T01:39:52.702Z,47.06
2023-02-17T01:40:15.196Z,47.14
2023-02-17T01:40:37.790Z,47.76
2023-02-17T01:40:59.538Z,48.18
2023-02-17T01:41:23.654Z,48.69
2023-02-17T01:41:47.503Z,48.57
2023-02-17T01:42:14.867Z,48.75
2023-02-17T01:42:40.282Z,48.61
2023-02-17T01:43:02.062Z,48.50
2023-02-17T01:43:26.231Z,48.63
2023-02-17T01:44:04.739Z,49.03
2023-02-17T01:44:32.749Z,48.61
2023-02-17T01:45:31.273Z,48.72
2023-02-17T01:45:54.269Z,48.42
2023-02-17T01:46:18.368Z,48.24
2023-02-17T01:46:43.808Z,48.16
2023-02-17T01:47:06.092Z,48.29
2023-02-17T01:47:27.808Z,48.45
2023-02-17T01:47:55.679Z,48.46
2023-02-17T01:48:20.576Z,48.39
2023-02-17T01:48:48.069Z,48.45
2023-02-17T01:49:19.818Z,48.67
2023-02-17T01:49:42.570Z,48.57
2023-02-17T01:50:05.445Z,48.55
2023-02-17T01:50:33.773Z,48.50
2023-02-17T01:51:00.189Z,48.69
2023-02-17T01:51:25.276Z,48.31
2023-02-17T01:51:52.341Z,48.30
2023-02-17T01:52:24.960Z,47.97
2023-02-17T01:52:46.838Z,48.01
2023-02-17T01:53:10.630Z,48.13
2023-02-17T01:53:37.075Z,47.94
2023-02-17T01:54:03.976Z,48.05
2023-02-17T01:54:30.195Z,47.78
2023-02-17T01:54:59.480Z,47.73
2023-02-17T01:55:24.945Z,47.52
2023-02-17T01:55:47.794Z,47.50
2023-02-17T01:56:11.827Z,47.42
2023-02-17T01:56:37.385Z,47.50
2023-02-17T01:57:02.325Z,47.35
2023-02-17T01:57:28.813Z,47.24
2023-02-17T01:57:57.205Z,47.24
2023-02-17T01:58:23.320Z,47.03
2023-02-17T01:58:52.014Z,47.02
2023-02-17T01:59:18.526Z,47.07
2023-02-17T01:59:42.035Z,47.24
2023-02-17T02:00:04.674Z,47.03
2023-02-17T02:00:36.308Z,47.03
2023-02-17T02:01:01.440Z,47.28
2023-02-17T02:01:23.922Z,47.58
2023-02-17T02:01:46.353Z,47.73
2023-02-17T02:02:09.420Z,47.57
2023-02-17T02:02:32.029Z,47.74
2023-02-17T02:02:54.400Z,47.88
2023-02-17T02:03:16.439Z,47.78
2023-02-17T02:03:39.301Z,47.76
2023-02-17T02:04:04.495Z,47.83
2023-02-17T02:04:30.293Z,47.80
2023-02-17T02:04:53.875Z,47.95
2023-02-17T02:05:18.092Z,47.65
2023-02-17T02:05:42.112Z,47.93
2023-02-17T02:06:09.598Z,47.74
2023-02-17T02:06:37.452Z,47.63
2023-02-17T02:07:00.487Z,47.82
2023-02-17T02:07:28.834Z,47.77
2023-02-17T02:07:52.820Z,47.90
2023-02-17T02:08:15.257Z,47.69
2023-02-17T02:08:46.193Z,47.53
2023-02-17T02:09:13.320Z,47.55
2023-02-17T02:09:37.466Z,47.56
2023-02-17T02:09:59.456Z,47.27
2023-02-17T02:10:21.962Z,47.61
2023-02-17T02:10:44.578Z,47.59
2023-02-17T02:11:06.253Z,47.84
2023-02-17T02:11:27.892Z,48.01
2023-02-17T02:11:51.072Z,47.90
2023-02-17T02:12:18.536Z,47.84
2023-02-17T02:12:43.020Z,48.01
2023-02-17T02:13:05.866Z,47.77
2023-02-17T02:13:27.848Z,47.55
2023-02-17T02:13:50.651Z,47.58
2023-02-17T02:14:14.986Z,47.43
2023-02-17T02:14:37.625Z,47.31
2023-02-17T02:15:03.517Z,47.21
2023-02-17T02:15:32.898Z,47.17
2023-02-17T02:16:01.582Z,47.09
2023-02-17T02:16:27.717Z,47.50
2023-02-17T02:16:59.278Z,47.48
2023-02-17T02:17:34.744Z,47.44
2023-02-17T02:18:14.243Z,47.36
2023-02-17T02:18:49.162Z,47.52
2023-02-17T02:19:35.899Z,48.21
2023-02-17T02:20:20.871Z,47.90
2023-02-17T02:21:03.799Z,47.85
2023-02-17T02:22:19.429Z,47.67
2023-02-17T02:23:00.880Z,47.75
2023-02-17T02:23:53.255Z,47.73
2023-02-17T02:24:22.869Z,47.40
2023-02-17T02:24:59.485Z,47.21
2023-02-17T02:25:44.667Z,47.43
2023-02-17T02:26:40.624Z,47.40
2023-02-17T02:27:29.345Z,47.67
2023-02-17T02:27:58.112Z,47.59
2023-02-17T02:28:30.787Z,47.59
2023-02-17T02:29:12.838Z,47.72
2023-02-17T02:30:02.123Z,47.63
2023-02-17T02:30:50.730Z,47.24
2023-02-17T02:31:30.501Z,47.23
2023-02-17T02:32:07.339Z,47.10
2023-02-17T02:32:53.201Z,47.27
2023-02-17T02:33:25.443Z,47.63
2023-02-17T02:33:52.331Z,47.64
2023-02-17T02:34:19.888Z,47.34
2023-02-17T02:34:46.425Z,48.01
2023-02-17T02:35:14.591Z,48.32
2023-02-17T02:35:47.312Z,48.09
2023-02-17T02:36:16.277Z,48.11
2023-02-17T02:36:44.153Z,48.01
2023-02-17T02:37:11.199Z,47.60
2023-02-17T02:37:36.151Z,47.62
2023-02-17T02:38:06.910Z,48.18
2023-02-17T02:38:35.422Z,48.88
2023-02-17T02:39:01.588Z,49.01
2023-02-17T02:39:30.676Z,49.34
2023-02-17T02:39:55.622Z,49.31
2023-02-17T02:40:21.990Z,49.14
2023-02-17T02:40:46.520Z,49.22
2023-02-17T02:41:12.769Z,49.12
2023-02-17T02:41:39.104Z,48.80
2023-02-17T02:42:05.552Z,48.59
2023-02-17T02:42:28.475Z,48.73
2023-02-17T02:42:51.151Z,48.23
2023-02-17T02:43:15.390Z,48.22
2023-02-17T02:43:38.151Z,48.30
2023-02-17T02:43:59.828Z,48.03
2023-02-17T02:44:22.328Z,47.85
2023-02-17T02:44:44.321Z,47.91
2023-02-17T02:45:09.825Z,47.83
2023-02-17T02:45:31.664Z,47.70
2023-02-17T02:45:53.515Z,47.64
2023-02-17T02:46:15.405Z,47.60
2023-02-17T02:46:38.605Z,47.67
2023-02-17T02:47:03.978Z,47.69
2023-02-17T02:47:42.411Z,47.98
2023-02-17T02:48:04.436Z,47.96
2023-02-17T02:48:27.571Z,48.13
2023-02-17T02:48:51.172Z,48.31
2023-02-17T02:49:13.099Z,48.39
2023-02-17T02:49:37.144Z,48.21
2023-02-17T02:49:59.391Z,48.02
2023-02-17T02:50:29.348Z,47.97
2023-02-17T02:51:16.463Z,47.76
2023-02-17T02:51:50.382Z,47.67
2023-02-17T02:52:19.645Z,47.40
2023-02-17T02:52:48.190Z,47.19
2023-02-17T02:53:31.221Z,47.29
2023-02-17T02:54:13.321Z,47.31
2023-02-17T02:54:45.496Z,47.30
2023-02-17T02:55:14.577Z,47.43
2023-02-17T02:55:51.249Z,47.38
2023-02-17T02:56:22.494Z,47.44
2023-02-17T02:57:05.444Z,48.06
2023-02-17T02:57:39.591Z,47.77
2023-02-17T02:58:11.147Z,48.01
2023-02-17T02:58:44.118Z,47.88
2023-02-17T02:59:18.482Z,47.76
2023-02-17T02:59:47.583Z,47.56
2023-02-17T03:00:20.806Z,47.45
2023-02-17T03:00:53.858Z,47.32
2023-02-17T03:01:24.187Z,47.33
2023-02-17T03:01:53.803Z,47.08
2023-02-17T03:02:22.251Z,47.18
2023-02-17T03:02:52.517Z,47.64
2023-02-17T03:03:21.880Z,47.56
2023-02-17T03:03:48.916Z,47.36
2023-02-17T03:04:15.886Z,47.48
2023-02-17T03:04:43.892Z,47.67
2023-02-17T03:05:12.612Z,47.68
2023-02-17T03:05:42.318Z,47.74
2023-02-17T03:06:12.353Z,47.63
2023-02-17T03:06:40.794Z,47.54
2023-02-17T03:07:10.061Z,47.50
2023-02-17T03:07:35.063Z,47.34
2023-02-17T03:08:02.271Z,47.46
2023-02-17T03:08:32.717Z,47.27
2023-02-17T03:08:59.999Z,47.59
2023-02-17T03:09:24.662Z,48.24
2023-02-17T03:09:48.088Z,48.18
2023-02-17T03:10:10.803Z,48.59
2023-02-17T03:10:32.483Z,48.34
2023-02-17T03:10:55.003Z,48.42
2023-02-17T03:11:32.154Z,48.43
2023-02-17T03:11:57.421Z,47.92
2023-02-17T03:12:21.416Z,47.92
2023-02-17T03:12:43.584Z,47.83
2023-02-17T03:13:07.577Z,47.57
2023-02-17T03:13:29.574Z,47.68
2023-02-17T03:13:52.545Z,47.48
2023-02-17T03:14:17.694Z,47.60
2023-02-17T03:14:40.368Z,48.06
2023-02-17T03:15:08.533Z,47.94
2023-02-17T03:15:33.317Z,47.79
2023-02-17T03:15:55.974Z,47.87
2023-02-17T03:16:18.602Z,47.61
2023-02-17T03:16:43.455Z,47.73
2023-02-17T03:17:05.658Z,47.52
2023-02-17T03:17:31.135Z,47.50
2023-02-17T03:17:57.846Z,47.45
2023-02-17T03:18:19.878Z,47.23
2023-02-17T03:18:42.224Z,47.15
2023-02-17T03:19:05.068Z,47.29
2023-02-17T03:19:29.126Z,47.19
2023-02-17T03:19:51.287Z,47.22
2023-02-17T03:20:14.232Z,47.04
2023-02-17T03:20:39.560Z,47.15
2023-02-17T03:21:06.934Z,47.08
2023-02-17T03:21:35.693Z,47.36
2023-02-17T03:22:05.307Z,47.19
2023-02-17T03:22:32.502Z,47.02
2023-02-17T03:22:54.674Z,47.27
2023-02-17T03:23:16.373Z,47.24
2023-02-17T03:23:38.050Z,47.23
2023-02-17T03:24:00.945Z,47.39
2023-02-17T03:24:23.591Z,47.56
2023-02-17T03:24:45.443Z,47.74
2023-02-17T03:25:07.835Z,48.00
2023-02-17T03:25:30.507Z,47.91
2023-02-17T03:25:52.488Z,48.12
2023-02-17T03:26:14.139Z,48.20
2023-02-17T03:26:35.967Z,48.21
2023-02-17T03:26:58.533Z,47.98
2023-02-17T03:27:20.176Z,47.88
2023-02-17T03:27:43.162Z,47.90
2023-02-17T03:28:05.570Z,47.68
2023-02-17T03:28:28.292Z,47.63
2023-02-17T03:28:50.334Z,47.73
2023-02-17T03:29:13.052Z,47.72
2023-02-17T03:29:34.805Z,47.54
2023-02-17T03:29:57.352Z,47.57
2023-02-17T03:30:19.397Z,47.53
2023-02-17T03:30:41.417Z,47.47
2023-02-17T03:31:03.304Z,47.34
2023-02-17T03:31:26.103Z,47.34
2023-02-17T03:31:47.896Z,47.06
2023-02-17T03:32:10.079Z,46.99
2023-02-17T03:32:31.782Z,47.21
2023-02-17T03:32:55.929Z,47.02
2023-02-17T03:33:17.549Z,47.07
2023-02-17T03:33:39.217Z,46.95
2023-02-17T03:34:01.164Z,47.19
2023-02-17T03:34:24.020Z,47.18
2023-02-17T03:34:45.716Z,46.99
2023-02-17T03:35:08.046Z,47.04
2023-02-17T03:35:29.895Z,46.84
2023-02-17T03:35:52.975Z,46.89
2023-02-17T03:36:15.619Z,47.03
2023-02-17T03:36:37.706Z,46.97
2023-02-17T03:36:59.566Z,46.91
2023-02-17T03:37:22.194Z,46.83
2023-02-17T03:37:43.993Z,46.72
2023-02-17T03:38:05.589Z,46.66
2023-02-17T03:38:28.529Z,46.79
2023-02-17T03:38:50.242Z,46.77
2023-02-17T03:39:11.849Z,46.61
2023-02-17T03:39:33.498Z,46.59
2023-02-17T03:39:56.455Z,46.65
2023-02-17T03:40:18.346Z,46.64
2023-02-17T03:40:40.076Z,46.59
2023-02-17T03:41:01.800Z,46.62
2023-02-17T03:41:25.032Z,46.90
2023-02-17T03:41:46.726Z,46.63
2023-02-17T03:42:08.355Z,46.83
2023-02-17T03:42:29.991Z,46.64
2023-02-17T03:42:52.578Z,46.80
2023-02-17T03:43:14.719Z,46.82
2023-02-17T03:43:36.621Z,46.92
2023-02-17T03:43:58.231Z,47.17
2023-02-17T03:44:21.142Z,46.98
2023-02-17T03:44:42.768Z,46.68
2023-02-17T03:45:05.041Z,46.83
2023-02-17T03:45:26.867Z,46.92
2023-02-17T03:45:49.506Z,46.80
2023-02-17T03:46:12.139Z,46.68
2023-02-17T03:46:33.914Z,46.76
2023-02-17T03:46:55.586Z,46.61
2023-02-17T03:47:18.511Z,46.79
2023-02-17T03:47:40.300Z,46.60
2023-02-17T03:48:03.479Z,46.53
2023-02-17T03:48:27.247Z,46.52
2023-02-17T03:48:49.095Z,46.38
2023-02-17T03:49:13.027Z,46.43
2023-02-17T03:49:34.721Z,46.33
2023-02-17T03:49:56.365Z,46.39
2023-02-17T03:50:18.549Z,46.23
2023-02-17T03:50:41.637Z,46.30
2023-02-17T03:51:10.525Z,46.03
2023-02-17T03:51:33.897Z,46.33
2023-02-17T03:51:58.083Z,46.21
2023-02-17T03:52:19.858Z,46.22
2023-02-17T03:52:41.782Z,46.20
2023-02-17T03:53:05.009Z,46.27
2023-02-17T03:53:27.714Z,46.28
2023-02-17T03:53:50.545Z,46.50
2023-02-17T03:54:12.305Z,46.35
2023-02-17T03:54:34.075Z,46.50
2023-02-17T03:54:56.706Z,46.34
2023-02-17T03:55:18.394Z,46.42
2023-02-17T03:55:40.142Z,46.21
2023-02-17T03:56:01.723Z,46.45
2023-02-17T03:56:24.625Z,46.21
2023-02-17T03:56:46.423Z,46.14
2023-02-17T03:57:08.704Z,46.25
2023-02-17T03:57:31.851Z,46.40
2023-02-17T03:57:54.473Z,46.31
2023-02-17T03:58:16.086Z,46.36
2023-02-17T03:58:39.029Z,46.50
2023-02-17T03:59:01.642Z,46.41
2023-02-17T03:59:23.572Z,46.37
2023-02-17T03:59:45.622Z,46.55
2023-02-17T04:00:08.326Z,46.72
2023-02-17T04:00:38.952Z,46.68
2023-02-17T04:01:01.763Z,46.84
2023-02-17T04:01:24.365Z,46.83
2023-02-17T04:01:46.467Z,47.21
2023-02-17T04:02:09.044Z,47.41
2023-02-17T04:02:30.651Z,47.51
2023-02-17T04:02:52.223Z,47.59
2023-02-17T04:03:15.156Z,47.38
2023-02-17T04:03:37.725Z,47.36
2023-02-17T04:04:00.429Z,47.44
2023-02-17T04:04:22.232Z,47.33
2023-02-17T04:04:43.945Z,47.44
2023-02-17T04:05:06.213Z,47.26
2023-02-17T04:05:29.165Z,47.39
2023-02-17T04:05:52.417Z,47.36
2023-02-17T04:06:15.536Z,47.25
2023-02-17T04:06:38.270Z,47.34
2023-02-17T04:06:59.947Z,47.24
2023-02-17T04:07:21.620Z,47.05
2023-02-17T04:07:45.984Z,47.14
2023-02-17T04:08:08.646Z,46.93
2023-02-17T04:08:30.281Z,46.83
2023-02-17T04:08:52.014Z,46.66
2023-02-17T04:09:13.620Z,46.63
2023-02-17T04:09:36.257Z,46.69
2023-02-17T04:09:57.944Z,46.69
2023-02-17T04:10:19.711Z,46.59
2023-02-17T04:10:41.379Z,46.74
2023-02-17T04:11:06.002Z,46.73
2023-02-17T04:11:27.673Z,46.53
2023-02-17T04:11:49.601Z,46.64
2023-02-17T04:12:12.220Z,46.59
2023-02-17T04:12:33.893Z,46.74
2023-02-17T04:12:55.935Z,46.74
2023-02-17T04:13:17.568Z,46.78
2023-02-17T04:13:40.896Z,46.62
2023-02-17T04:14:02.605Z,46.38
2023-02-17T04:14:24.212Z,46.58
2023-02-17T04:14:45.831Z,46.45
2023-02-17T04:15:09.433Z,46.46
2023-02-17T04:15:31.358Z,46.58
2023-02-17T04:15:54.022Z,46.54
2023-02-17T04:16:15.664Z,46.50
2023-02-17T04:16:39.125Z,46.61
2023-02-17T04:17:00.775Z,46.55
2023-02-17T04:17:22.442Z,46.50
2023-02-17T04:17:44.071Z,46.40
2023-02-17T04:18:05.791Z,46.20
2023-02-17T04:18:29.821Z,46.19
2023-02-17T04:18:51.409Z,46.17
2023-02-17T04:19:13.178Z,46.32
2023-02-17T04:19:34.871Z,46.12
2023-02-17T04:19:56.548Z,46.43
2023-02-17T04:20:19.376Z,46.49
2023-02-17T04:20:41.207Z,46.63
2023-02-17T04:21:03.638Z,46.65
2023-02-17T04:21:25.566Z,46.34
2023-02-17T04:21:48.197Z,46.56
2023-02-17T04:22:10.137Z,47.11
2023-02-17T04:22:31.944Z,47.63
2023-02-17T04:22:53.526Z,47.70
2023-02-17T04:23:16.273Z,47.68
2023-02-17T04:23:38.305Z,47.77
2023-02-17T04:24:00.601Z,47.81
2023-02-17T04:24:23.243Z,47.91
2023-02-17T04:24:44.908Z,47.67
2023-02-17T04:25:06.779Z,47.70
2023-02-17T04:25:28.354Z,47.56
2023-02-17T04:25:51.004Z,47.41
2023-02-17T04:26:12.871Z,47.46
2023-02-17T04:26:34.536Z,47.70
2023-02-17T04:26:56.183Z,47.73
2023-02-17T04:27:18.787Z,47.48
2023-02-17T04:27:40.352Z,47.42
2023-02-17T04:28:02.151Z,47.51
2023-02-17T04:28:23.931Z,47.21
2023-02-17T04:28:45.564Z,47.30
2023-02-17T04:29:08.158Z,47.32
2023-02-17T04:29:29.831Z,47.12
2023-02-17T04:29:52.060Z,46.99
2023-02-17T04:30:15.177Z,47.07
2023-02-17T04:30:36.917Z,47.07
2023-02-17T04:31:00.898Z,46.87
2023-02-17T04:31:25.900Z,46.88
2023-02-17T04:31:47.737Z,47.14
2023-02-17T04:32:09.422Z,47.14
2023-02-17T04:32:32.110Z,47.04
2023-02-17T04:32:53.773Z,47.04
2023-02-17T04:33:16.277Z,46.73
2023-02-17T04:33:39.210Z,46.75
2023-02-17T04:34:00.790Z,46.63
2023-02-17T04:34:23.537Z,46.44
2023-02-17T04:34:45.164Z,46.55
2023-02-17T04:35:07.703Z,46.39
2023-02-17T04:35:29.388Z,46.46
2023-02-17T04:35:59.332Z,46.44
2023-02-17T04:36:21.045Z,46.39
2023-02-17T04:36:44.424Z,46.28
2023-02-17T04:37:06.746Z,46.13
2023-02-17T04:37:28.663Z,46.10
2023-02-17T04:37:50.940Z,46.00
2023-02-17T04:38:16.203Z,45.99
2023-02-17T04:38:38.596Z,45.95
2023-02-17T04:39:00.215Z,45.99
2023-02-17T04:39:21.930Z,45.90
2023-02-17T04:39:46.529Z,45.84
2023-02-17T04:40:10.285Z,45.60
2023-02-17T04:40:32.095Z,45.73
2023-02-17T04:40:55.519Z,45.64
2023-02-17T04:41:19.505Z,45.67
2023-02-17T04:41:41.195Z,45.65
2023-02-17T04:42:05.478Z,45.69
2023-02-17T04:42:27.183Z,45.76
2023-02-17T04:42:48.872Z,45.83
2023-02-17T04:43:11.587Z,45.94
2023-02-17T04:43:34.289Z,45.92
2023-02-17T04:43:57.068Z,45.91
2023-02-17T04:44:19.089Z,45.99
2023-02-17T04:44:42.841Z,46.00
2023-02-17T04:45:08.518Z,46.13
2023-02-17T04:45:30.496Z,45.92
2023-02-17T04:45:52.473Z,45.91
2023-02-17T04:46:15.238Z,45.91
2023-02-17T04:46:37.544Z,45.92
2023-02-17T04:46:59.170Z,45.95
2023-02-17T04:47:21.076Z,45.92
2023-02-17T04:47:43.646Z,45.72
2023-02-17T04:48:05.607Z,45.63
2023-02-17T04:48:27.272Z,45.83
2023-02-17T04:48:50.289Z,45.80
2023-02-17T04:49:12.882Z,45.67
2023-02-17T04:49:34.539Z,45.70
2023-02-17T04:49:56.207Z,45.77
2023-02-17T04:50:20.060Z,46.15
2023-02-17T04:50:42.510Z,45.93
2023-02-17T04:51:05.992Z,45.96
2023-02-17T04:51:27.599Z,45.93
2023-02-17T04:51:49.200Z,45.74
2023-02-17T04:52:10.961Z,45.65
2023-02-17T04:52:32.674Z,45.59
2023-02-17T04:52:55.291Z,45.83
2023-02-17T04:53:18.993Z,46.08
2023-02-17T04:53:40.583Z,46.10
2023-02-17T04:54:02.297Z,46.08
2023-02-17T04:54:24.955Z,46.27
2023-02-17T04:54:46.851Z,46.07
2023-02-17T04:55:08.828Z,46.16
2023-02-17T04:55:31.073Z,46.06
2023-02-17T04:55:54.244Z,45.99
2023-02-17T04:56:15.854Z,45.94
2023-02-17T04:56:37.519Z,45.82
2023-02-17T04:56:59.155Z,45.95
2023-02-17T04:57:21.883Z,45.92
2023-02-17T04:57:43.559Z,46.01
2023-02-17T04:58:05.158Z,46.13
2023-02-17T04:58:26.805Z,46.00
2023-02-17T04:58:49.332Z,45.95
2023-02-17T04:59:11.042Z,46.06
2023-02-17T04:59:32.618Z,45.92
2023-02-17T04:59:54.227Z,45.94
2023-02-17T05:00:16.141Z,45.75
2023-02-17T05:00:38.820Z,45.89
2023-02-17T05:01:00.653Z,45.61
2023-02-17T05:01:22.326Z,45.76
2023-02-17T05:01:44.123Z,45.71
2023-02-17T05:02:05.764Z,45.90
2023-02-17T05:02:28.742Z,45.79
2023-02-17T05:02:50.418Z,45.99
2023-02-17T05:03:12.053Z,45.98
2023-02-17T05:03:33.732Z,45.94
2023-02-17T05:03:57.748Z,45.92
2023-02-17T05:04:19.371Z,45.73
2023-02-17T05:04:41.033Z,45.82
2023-02-17T05:05:03.185Z,45.68
2023-02-17T05:05:25.902Z,45.78
2023-02-17T05:05:47.598Z,45.73
2023-02-17T05:06:09.214Z,45.86
2023-02-17T05:06:30.885Z,45.85
2023-02-17T05:06:52.637Z,45.68
2023-02-17T05:07:15.256Z,45.86
2023-02-17T05:07:36.871Z,45.86
2023-02-17T05:07:58.604Z,46.28
2023-02-17T05:08:20.298Z,46.27
2023-02-17T05:08:42.138Z,46.24
2023-02-17T05:09:04.934Z,46.22
2023-02-17T05:09:26.848Z,46.15
2023-02-17T05:09:48.668Z,46.38
2023-02-17T05:10:11.140Z,46.18
2023-02-17T05:10:33.768Z,46.11
2023-02-17T05:10:55.368Z,46.02
2023-02-17T05:11:17.266Z,46.34